createdAt,value
2022-11-03T00:02:02.752Z,101396.19
2022-11-03T00:04:29.358Z,101394.47
2022-11-03T00:06:56.226Z,101391.66
2022-11-03T00:09:23.983Z,101387.31
2022-11-03T00:11:51.522Z,101390.09
2022-11-03T00:14:19.033Z,101381.06
2022-11-03T00:16:46.054Z,101380.22
2022-11-03T00:19:17.120Z,101376.69
2022-11-03T00:21:44.388Z,101365.09
2022-11-03T00:24:11.313Z,101356.38
2022-11-03T00:26:38.411Z,101349.16
2022-11-03T00:29:10.954Z,101354.66
2022-11-03T00:31:39.795Z,101357.34
2022-11-03T00:34:07.842Z,101351.13
2022-11-03T00:36:37.176Z,101350.28
2022-11-03T00:39:04.501Z,101358.34
2022-11-03T00:41:31.692Z,101354.81
2022-11-03T00:43:58.304Z,101355.09
2022-11-03T00:46:25.877Z,101346.03
2022-11-03T00:48:52.642Z,101349.59
2022-11-03T00:51:27.356Z,101346.03
2022-11-03T00:53:56.119Z,101353.13
2022-11-03T00:56:25.113Z,101353.13
2022-11-03T00:58:52.759Z,101354.25
2022-11-03T01:01:21.090Z,101339.97
2022-11-03T01:04:09.327Z,101335.44
2022-11-03T01:06:50.274Z,101336.44
2022-11-03T01:09:25.155Z,101336.44
2022-11-03T01:12:06.504Z,101330.25
2022-11-03T01:14:35.340Z,101339.97
2022-11-03T01:17:04.546Z,101325.84
2022-11-03T01:19:31.070Z,101322.31
2022-11-03T01:21:57.620Z,101322.47
2022-11-03T01:24:24.108Z,101311.72
2022-11-03T01:26:50.901Z,101307.38
2022-11-03T01:29:17.645Z,101311.72
2022-11-03T01:31:44.191Z,101310.06
2022-11-03T01:34:19.102Z,101302.97
2022-11-03T01:36:46.011Z,101296.63
2022-11-03T01:39:14.462Z,101299.44
2022-11-03T01:41:42.751Z,101288.84
2022-11-03T01:44:09.256Z,101284.34
2022-11-03T01:46:44.156Z,101288.84
2022-11-03T01:49:35.336Z,101278.28
2022-11-03T01:52:16.744Z,101276.44
2022-11-03T01:54:46.106Z,101279.13
2022-11-03T01:57:18.256Z,101264.00
2022-11-03T01:59:45.847Z,101266.69
2022-11-03T02:02:12.928Z,101273.88
2022-11-03T02:04:39.929Z,101265.00
2022-11-03T02:07:17.574Z,101263.16
2022-11-03T02:09:44.079Z,101259.63
2022-11-03T02:12:11.130Z,101256.94
2022-11-03T02:15:03.384Z,101252.72
2022-11-03T02:17:32.201Z,101249.03
2022-11-03T02:20:11.958Z,101248.22
2022-11-03T02:22:41.508Z,101248.22
2022-11-03T02:25:29.730Z,101250.03
2022-11-03T02:27:56.509Z,101242.84
2022-11-03T02:30:23.049Z,101238.31
2022-11-03T02:33:29.067Z,101221.50
2022-11-03T02:36:02.893Z,101225.03
2022-11-03T02:38:32.184Z,101214.28
2022-11-03T02:41:03.219Z,101202.72
2022-11-03T02:43:30.212Z,101195.66
2022-11-03T02:45:56.805Z,101196.50
2022-11-03T02:48:23.327Z,101187.44
2022-11-03T02:50:49.850Z,101185.78
2022-11-03T02:53:16.998Z,101180.41
2022-11-03T02:55:55.780Z,101178.72
2022-11-03T02:58:31.290Z,101179.72
2022-11-03T03:01:19.969Z,101177.03
2022-11-03T03:04:09.176Z,101166.31
2022-11-03T03:06:58.019Z,101172.63
2022-11-03T03:10:02.787Z,101166.44
2022-11-03T03:12:32.388Z,101166.31
2022-11-03T03:15:01.019Z,101160.94
2022-11-03T03:17:33.173Z,101154.84
2022-11-03T03:20:05.787Z,101158.25
2022-11-03T03:22:52.215Z,101142.28
2022-11-03T03:25:27.099Z,101149.50
2022-11-03T03:28:00.613Z,101126.34
2022-11-03T03:30:29.384Z,101137.06
2022-11-03T03:32:59.352Z,101124.66
2022-11-03T03:35:30.786Z,101125.50
2022-11-03T03:38:04.307Z,101119.28
2022-11-03T03:40:32.471Z,101121.09
2022-11-03T03:43:01.794Z,101121.66
2022-11-03T03:45:30.334Z,101119.97
2022-11-03T03:47:58.041Z,101110.25
2022-11-03T03:50:27.687Z,101109.41
2022-11-03T03:53:02.154Z,101121.09
2022-11-03T03:55:40.841Z,101114.91
2022-11-03T03:58:08.181Z,101105.16
2022-11-03T04:00:34.894Z,101110.53
2022-11-03T04:03:01.374Z,101111.53
2022-11-03T04:05:27.939Z,101107.00
2022-11-03T04:07:54.474Z,101101.66
2022-11-03T04:10:22.621Z,101090.06
2022-11-03T04:13:07.911Z,101102.47
2022-11-03T04:16:03.596Z,101095.44
2022-11-03T04:18:48.894Z,101094.44
2022-11-03T04:21:34.149Z,101081.03
2022-11-03T04:24:00.703Z,101084.69
2022-11-03T04:26:28.422Z,101085.53
2022-11-03T04:28:57.145Z,101073.13
2022-11-03T04:31:23.975Z,101080.19
2022-11-03T04:33:50.951Z,101077.50
2022-11-03T04:36:23.027Z,101071.28
2022-11-03T04:38:51.040Z,101065.94
2022-11-03T04:41:21.615Z,101057.03
2022-11-03T04:43:49.832Z,101066.94
2022-11-03T04:46:24.496Z,101070.56
2022-11-03T04:48:53.298Z,101064.25
2022-11-03T04:51:24.411Z,101053.63
2022-11-03T04:53:54.800Z,101050.81
2022-11-03T04:56:24.343Z,101047.28
2022-11-03T04:58:52.119Z,101051.66
2022-11-03T05:01:24.474Z,101043.75
2022-11-03T05:03:53.919Z,101039.22
2022-11-03T05:06:28.741Z,101038.53
2022-11-03T05:09:10.847Z,101045.59
2022-11-03T05:11:44.045Z,101037.53
2022-11-03T05:14:31.311Z,101026.97
2022-11-03T05:16:59.774Z,101025.97
2022-11-03T05:19:34.251Z,101025.13
2022-11-03T05:22:03.289Z,101025.97
2022-11-03T05:24:31.028Z,101024.28
2022-11-03T05:26:59.989Z,101020.59
2022-11-03T05:29:36.821Z,101009.19
2022-11-03T05:32:03.705Z,101003.66
2022-11-03T05:34:30.120Z,101006.50
2022-11-03T05:37:26.881Z,100994.91
2022-11-03T05:39:57.715Z,100992.09
2022-11-03T05:42:34.128Z,100998.47
2022-11-03T05:45:04.521Z,100986.88
2022-11-03T05:47:39.526Z,100983.34
2022-11-03T05:50:19.006Z,100984.34
2022-11-03T05:52:47.174Z,100980.66
2022-11-03T05:55:27.600Z,100978.97
2022-11-03T05:57:56.652Z,100971.66
2022-11-03T06:00:32.746Z,100971.78
2022-11-03T06:03:00.158Z,100971.78
2022-11-03T06:05:27.894Z,100967.25
2022-11-03T06:07:56.637Z,100957.53
2022-11-03T06:10:28.215Z,100961.03
2022-11-03T06:12:59.342Z,100956.53
2022-11-03T06:15:35.092Z,100946.78
2022-11-03T06:18:14.702Z,100952.16
2022-11-03T06:20:41.699Z,100950.31
2022-11-03T06:23:15.758Z,100942.25
2022-11-03T06:25:43.376Z,100938.75
2022-11-03T06:28:22.585Z,100942.44
2022-11-03T06:30:49.340Z,100944.09
2022-11-03T06:33:28.626Z,100938.75
2022-11-03T06:36:00.607Z,100935.22
2022-11-03T06:38:31.910Z,100929.00
2022-11-03T06:40:59.007Z,100938.75
2022-11-03T06:43:52.067Z,100919.28
2022-11-03T06:46:23.881Z,100921.81
2022-11-03T06:48:58.842Z,100920.97
2022-11-03T06:51:29.865Z,100913.94
2022-11-03T06:54:01.276Z,100909.41
2022-11-03T06:56:36.751Z,100911.25
2022-11-03T06:59:03.296Z,100916.44
2022-11-03T07:01:32.439Z,100920.97
2022-11-03T07:04:05.904Z,100915.59
2022-11-03T07:06:36.369Z,100920.97
2022-11-03T07:09:05.985Z,100921.81
2022-11-03T07:11:41.462Z,100921.81
2022-11-03T07:14:14.716Z,100929.84
2022-11-03T07:16:47.172Z,100923.66
2022-11-03T07:19:22.114Z,100913.75
2022-11-03T07:21:52.876Z,100919.13
2022-11-03T07:24:24.148Z,100916.28
2022-11-03T07:27:02.491Z,100908.56
2022-11-03T07:29:31.217Z,100905.53
2022-11-03T07:31:59.608Z,100909.25
2022-11-03T07:34:32.205Z,100898.50
2022-11-03T07:36:58.897Z,100904.88
2022-11-03T07:39:32.554Z,100909.25
2022-11-03T07:41:59.223Z,100910.91
2022-11-03T07:44:25.695Z,100910.06
2022-11-03T07:46:52.246Z,100907.38
2022-11-03T07:49:27.428Z,100910.06
2022-11-03T07:51:56.205Z,100908.22
2022-11-03T07:54:26.067Z,100903.72
2022-11-03T07:57:04.113Z,100892.13
2022-11-03T07:59:35.262Z,100892.13
2022-11-03T08:02:03.194Z,100888.47
2022-11-03T08:04:33.615Z,100893.84
2022-11-03T08:07:00.205Z,100888.47
2022-11-03T08:09:27.259Z,100893.69
2022-11-03T08:11:54.292Z,100885.78
2022-11-03T08:14:20.812Z,100883.13
2022-11-03T08:16:47.382Z,100877.75
2022-11-03T08:19:13.883Z,100871.50
2022-11-03T08:21:40.351Z,100869.69
2022-11-03T08:24:07.038Z,100860.78
2022-11-03T08:26:33.740Z,100858.09
2022-11-03T08:29:00.354Z,100853.59
2022-11-03T08:31:27.128Z,100841.88
2022-11-03T08:33:53.825Z,100837.34
2022-11-03T08:36:20.862Z,100835.50
2022-11-03T08:38:47.421Z,100820.25
2022-11-03T08:41:13.950Z,100822.09
2022-11-03T08:43:40.411Z,100823.75
2022-11-03T08:46:15.843Z,100814.75
2022-11-03T08:48:44.387Z,100808.50
2022-11-03T08:51:13.458Z,100802.16
2022-11-03T08:53:42.450Z,100800.31
2022-11-03T08:56:12.274Z,100803.00
2022-11-03T08:58:40.138Z,100784.22
2022-11-03T09:01:07.984Z,100782.38
2022-11-03T09:03:34.630Z,100778.69
2022-11-03T09:06:01.188Z,100768.78
2022-11-03T09:11:14.226Z,100755.25
2022-11-03T09:13:40.718Z,100755.06
2022-11-03T09:16:07.665Z,100751.38
2022-11-03T09:18:34.147Z,100740.66
2022-11-03T09:21:00.806Z,100727.25
2022-11-03T09:23:27.357Z,100720.91
2022-11-03T09:25:53.936Z,100715.34
2022-11-03T09:28:20.413Z,100710.00
2022-11-03T09:30:46.977Z,100709.00
2022-11-03T09:33:13.461Z,100707.13
2022-11-03T09:35:39.934Z,100692.75
2022-11-03T09:38:07.947Z,100699.78
2022-11-03T09:40:36.165Z,100688.03
2022-11-03T09:43:03.173Z,100677.31
2022-11-03T09:45:29.821Z,100673.63
2022-11-03T09:47:56.568Z,100665.56
2022-11-03T09:50:23.412Z,100663.75
2022-11-03T09:52:52.412Z,100662.88
2022-11-03T09:55:26.825Z,100661.91
2022-11-03T09:57:57.513Z,100653.03
2022-11-03T10:00:24.164Z,100659.22
2022-11-03T10:02:51.061Z,100653.88
2022-11-03T10:05:28.228Z,100649.34
2022-11-03T10:08:05.550Z,100653.88
2022-11-03T10:10:33.324Z,100650.16
2022-11-03T10:13:01.007Z,100644.81
2022-11-03T10:15:27.874Z,100641.28
2022-11-03T10:17:55.612Z,100626.84
2022-11-03T10:20:23.078Z,100621.66
2022-11-03T10:22:54.718Z,100620.66
2022-11-03T10:25:33.232Z,100615.13
2022-11-03T10:28:24.080Z,100611.59
2022-11-03T10:31:11.433Z,100605.22
2022-11-03T10:33:53.811Z,100606.91
2022-11-03T10:36:20.258Z,100588.97
2022-11-03T10:38:47.855Z,100584.63
2022-11-03T10:41:19.900Z,100584.44
2022-11-03T10:44:10.939Z,100579.06
2022-11-03T10:46:50.754Z,100581.75
2022-11-03T10:49:19.959Z,100573.53
2022-11-03T10:51:52.931Z,100560.94
2022-11-03T10:54:22.820Z,100554.75
2022-11-03T10:56:51.003Z,100554.75
2022-11-03T10:59:19.040Z,100545.72
2022-11-03T11:01:46.410Z,100549.25
2022-11-03T11:04:18.323Z,100532.13
2022-11-03T11:06:46.161Z,100531.09
2022-11-03T11:09:16.628Z,100527.41
2022-11-03T11:12:02.494Z,100521.22
2022-11-03T11:14:28.946Z,100521.06
2022-11-03T11:16:57.372Z,100525.41
2022-11-03T11:19:25.796Z,100527.09
2022-11-03T11:21:55.145Z,100520.72
2022-11-03T11:24:51.015Z,100515.34
2022-11-03T11:27:57.056Z,100514.38
2022-11-03T11:30:27.279Z,100507.81
2022-11-03T11:33:12.614Z,100504.13
2022-11-03T11:35:39.114Z,100502.13
2022-11-03T11:39:00.173Z,100486.00
2022-11-03T11:42:04.291Z,100477.78
2022-11-03T11:44:39.957Z,100482.81
2022-11-03T11:47:35.013Z,100469.56
2022-11-03T11:50:09.476Z,100465.72
2022-11-03T11:52:38.950Z,100460.38
2022-11-03T11:55:05.872Z,100445.09
2022-11-03T11:57:35.215Z,100445.94
2022-11-03T12:00:01.832Z,100432.31
2022-11-03T12:02:31.116Z,100430.47
2022-11-03T12:05:04.814Z,100416.06
2022-11-03T12:07:31.765Z,100423.97
2022-11-03T12:10:08.189Z,100411.22
2022-11-03T12:12:35.318Z,100406.72
2022-11-03T12:15:01.841Z,100403.00
2022-11-03T12:17:28.292Z,100398.47
2022-11-03T12:19:55.311Z,100396.63
2022-11-03T12:22:24.582Z,100393.94
2022-11-03T12:24:52.138Z,100384.03
2022-11-03T12:27:24.529Z,100391.25
2022-11-03T12:29:55.896Z,100382.19
2022-11-03T12:32:33.440Z,100380.31
2022-11-03T12:35:01.312Z,100376.81
2022-11-03T12:37:27.815Z,100358.00
2022-11-03T12:39:54.328Z,100352.66
2022-11-03T12:42:21.137Z,100345.59
2022-11-03T12:44:47.852Z,100352.66
2022-11-03T12:47:14.373Z,100352.50
2022-11-03T12:49:40.855Z,100352.31
2022-11-03T12:52:08.610Z,100343.25
2022-11-03T12:54:35.507Z,100329.66
2022-11-03T12:57:02.094Z,100321.44
2022-11-03T12:59:28.664Z,100317.72
2022-11-03T13:01:55.351Z,100308.69
2022-11-03T13:04:21.907Z,100301.28
2022-11-03T13:06:48.463Z,100286.84
2022-11-03T13:09:15.018Z,100290.19
2022-11-03T13:11:59.987Z,100280.28
2022-11-03T13:14:26.716Z,100279.94
2022-11-03T13:16:53.400Z,100280.78
2022-11-03T13:19:20.366Z,100278.94
2022-11-03T13:21:46.871Z,100274.41
2022-11-03T13:24:13.349Z,100270.69
2022-11-03T13:26:39.869Z,100251.06
2022-11-03T13:29:06.371Z,100250.91
2022-11-03T13:31:32.873Z,100241.00
2022-11-03T13:33:59.388Z,100237.47
2022-11-03T13:36:25.933Z,100227.72
2022-11-03T13:38:52.585Z,100223.22
2022-11-03T13:41:19.125Z,100214.28
2022-11-03T13:43:45.678Z,100220.69
2022-11-03T13:46:12.922Z,100219.00
2022-11-03T13:51:26.398Z,100214.66
2022-11-03T13:59:26.656Z,100208.63
2022-11-03T14:07:11.908Z,100182.94
2022-11-03T14:09:46.003Z,100170.53
2022-11-03T14:12:31.038Z,100182.09
2022-11-03T14:15:06.196Z,100170.72
2022-11-03T14:17:33.018Z,100171.56
2022-11-03T14:20:04.105Z,100178.78
2022-11-03T14:22:31.770Z,100175.25
2022-11-03T14:24:58.585Z,100169.06
2022-11-03T14:27:25.344Z,100155.63
2022-11-03T14:29:51.988Z,100152.09
2022-11-03T14:32:19.244Z,100149.59
2022-11-03T14:34:45.922Z,100141.53
2022-11-03T14:37:13.233Z,100138.84
2022-11-03T14:39:40.180Z,100149.41
2022-11-03T14:42:15.043Z,100144.22
2022-11-03T14:44:42.893Z,100150.59
2022-11-03T14:47:11.796Z,100146.91
2022-11-03T14:49:38.445Z,100149.78
2022-11-03T14:52:07.362Z,100140.88
2022-11-03T14:54:34.769Z,100144.41
2022-11-03T14:57:01.995Z,100139.19
2022-11-03T14:59:28.713Z,100139.19
2022-11-03T15:01:56.061Z,100124.94
2022-11-03T15:04:22.902Z,100111.69
2022-11-03T15:06:49.962Z,100113.56
2022-11-03T15:09:16.609Z,100116.22
2022-11-03T15:11:44.312Z,100107.34
2022-11-03T15:14:11.967Z,100103.81
2022-11-03T15:16:39.200Z,100078.81
2022-11-03T15:19:06.647Z,100055.66
2022-11-03T15:21:33.597Z,100035.22
2022-11-03T15:26:46.850Z,100066.59
2022-11-03T15:29:13.497Z,100064.06
2022-11-03T15:31:44.469Z,100072.94
2022-11-03T15:34:13.923Z,100065.91
2022-11-03T15:36:40.486Z,100064.25
2022-11-03T15:39:07.041Z,100053.69
2022-11-03T15:41:33.532Z,100058.19
2022-11-03T15:44:00.042Z,100052.16
2022-11-03T15:46:26.725Z,100055.88
2022-11-03T15:48:54.474Z,100045.13
2022-11-03T15:51:21.158Z,100041.63
2022-11-03T15:53:47.665Z,100037.44
2022-11-03T15:56:14.227Z,100041.13
2022-11-03T15:58:41.085Z,100029.53
2022-11-03T16:01:07.694Z,100017.97
2022-11-03T16:03:34.355Z,100019.00
2022-11-03T16:06:00.874Z,100018.16
2022-11-03T16:08:27.355Z,100010.31
2022-11-03T16:10:57.936Z,100005.75
2022-11-03T16:13:24.790Z,100014.66
2022-11-03T16:15:51.790Z,100017.50
2022-11-03T16:18:18.328Z,100015.81
2022-11-03T16:20:44.858Z,100016.84
2022-11-03T16:23:11.354Z,100022.22
2022-11-03T16:25:37.910Z,100016.84
2022-11-03T16:28:04.837Z,100000.75
2022-11-03T16:30:31.789Z,100009.63
2022-11-03T16:32:58.334Z,100016.00
2022-11-03T16:35:24.932Z,100007.97
2022-11-03T16:37:51.511Z,100012.50
2022-11-03T16:40:19.878Z,100023.22
2022-11-03T16:42:47.152Z,100017.03
2022-11-03T16:45:21.737Z,100018.84
2022-11-03T16:47:49.780Z,100017.88
2022-11-03T16:50:17.399Z,100017.03
2022-11-03T16:52:45.247Z,100019.88
2022-11-03T16:55:12.027Z,100011.00
2022-11-03T16:57:39.452Z,100017.19
2022-11-03T17:00:08.719Z,100009.31
2022-11-03T17:02:35.344Z,100003.97
2022-11-03T17:05:01.905Z,99996.94
2022-11-03T17:07:28.375Z,99993.22
2022-11-03T17:09:54.889Z,99991.56
2022-11-03T17:12:21.363Z,99983.69
2022-11-03T17:14:51.202Z,99989.03
2022-11-03T17:17:20.586Z,99978.50
2022-11-03T17:19:47.115Z,99982.00
2022-11-03T17:22:13.749Z,99974.78
2022-11-03T17:24:40.218Z,99974.97
2022-11-03T17:27:14.495Z,99970.59
2022-11-03T17:29:53.948Z,99985.72
2022-11-03T17:32:28.659Z,99983.19
2022-11-03T17:34:55.845Z,99981.53
2022-11-03T17:37:23.640Z,99990.59
2022-11-03T17:39:50.358Z,99980.69
2022-11-03T17:42:17.813Z,99980.69
2022-11-03T17:44:45.599Z,99982.53
2022-11-03T17:47:12.107Z,99976.34
2022-11-03T17:49:38.691Z,99965.63
2022-11-03T17:52:09.784Z,99955.22
2022-11-03T17:54:36.269Z,99953.38
2022-11-03T17:57:04.070Z,99949.03
2022-11-03T17:59:30.660Z,99946.34
2022-11-03T18:01:57.588Z,99942.00
2022-11-03T18:04:24.122Z,99945.53
2022-11-03T18:06:50.718Z,99944.84
2022-11-03T18:09:18.398Z,99942.00
2022-11-03T18:12:03.738Z,99938.47
2022-11-03T18:14:30.449Z,99927.09
2022-11-03T18:16:57.840Z,99923.38
2022-11-03T18:19:24.468Z,99929.78
2022-11-03T18:21:51.007Z,99924.41
2022-11-03T18:24:20.107Z,99939.69
2022-11-03T18:26:46.675Z,99924.41
2022-11-03T18:29:13.212Z,99911.19
2022-11-03T18:31:50.753Z,99920.22
2022-11-03T18:34:24.104Z,99915.69
2022-11-03T18:36:52.641Z,99914.03
2022-11-03T18:39:24.597Z,99915.69
2022-11-03T18:41:51.406Z,99911.19
2022-11-03T18:44:22.128Z,99914.84
2022-11-03T18:46:51.210Z,99909.50
2022-11-03T18:49:18.798Z,99897.09
2022-11-03T18:51:49.065Z,99891.72
2022-11-03T18:56:52.865Z,99897.28
2022-11-03T18:59:26.582Z,99902.66
2022-11-03T19:01:53.430Z,99901.81
2022-11-03T19:04:20.034Z,99909.50
2022-11-03T19:06:48.171Z,99906.16
2022-11-03T19:09:21.171Z,99908.19
2022-11-03T19:11:49.583Z,99902.81
2022-11-03T19:14:23.143Z,99888.56
2022-11-03T19:17:17.173Z,99885.88
2022-11-03T19:19:39.406Z,99877.84
2022-11-03T19:22:12.587Z,99874.53
2022-11-03T19:24:39.092Z,99878.50
2022-11-03T19:27:06.649Z,99866.09
2022-11-03T19:29:37.733Z,99863.25
2022-11-03T19:32:04.778Z,99847.78
2022-11-03T19:34:35.242Z,99857.34
2022-11-03T19:37:01.901Z,99855.31
2022-11-03T19:39:40.198Z,99853.28
2022-11-03T19:42:27.985Z,99845.53
2022-11-03T19:44:55.897Z,99846.19
2022-11-03T19:47:26.994Z,99847.66
2022-11-03T19:49:55.224Z,99851.00
2022-11-03T19:52:26.653Z,99850.81
2022-11-03T19:54:54.382Z,99839.06
2022-11-03T19:57:21.194Z,99837.03
2022-11-03T19:59:47.795Z,99827.97
2022-11-03T20:02:14.435Z,99825.94
2022-11-03T20:04:46.845Z,99827.41
2022-11-03T20:07:15.516Z,99835.31
2022-11-03T20:09:42.308Z,99839.47
2022-11-03T20:12:12.344Z,99835.78
2022-11-03T20:14:38.844Z,99836.41
2022-11-03T20:17:14.688Z,99847.84
2022-11-03T20:19:41.271Z,99839.59
2022-11-03T20:22:13.336Z,99848.31
2022-11-03T20:24:39.973Z,99855.34
2022-11-03T20:27:09.004Z,99847.31
2022-11-03T20:29:36.894Z,99856.81
2022-11-03T20:32:03.447Z,99850.47
2022-11-03T20:34:29.958Z,99849.25
2022-11-03T20:36:58.907Z,99839.31
2022-11-03T20:39:26.590Z,99843.88
2022-11-03T20:41:54.303Z,99854.44
2022-11-03T20:44:20.863Z,99851.75
2022-11-03T20:46:47.362Z,99850.72
2022-11-03T20:49:14.087Z,99848.69
2022-11-03T20:51:43.485Z,99844.34
2022-11-03T20:54:17.573Z,99844.19
2022-11-03T20:56:44.555Z,99846.84
2022-11-03T21:01:45.979Z,99865.66
2022-11-03T21:04:17.228Z,99868.34
